Sao Jose de Piranhas, Brazil
Current Conditions -  °F | °C
As of 4:00 PM on Thursday 30 Oct 2014 (Local Time) from SBJU Reporting Station
Scattered Clouds Scattered Clouds  
Wind Chill: 95°   Ceiling: Unl
Heat Index: 95°   Visibility: 6mi
Dew Point: 61°   Wind: 6mph
Humidity: 32%   Direction: 60°ENE
Pressure: 29.91"   Gusts: NA
Location:  7.12°S, 38.5°W
Report Text: SBJU 301900Z 06005KT 9999 SCT020 35/16 Q1013
Loading
Personal Weather Stations






























Interactive Weather Map
Tropical Storm Tracking
New forecast layout! Learn more

10-Day Weather Forecast

Advertisements
Track Severe Weather on mobile